Weather at Gamal Abdel Nasser Airport

Public forecast

Using degrees Celsius for public forecast. Weather courtesy of forecast.io.

Closest aviation weather report (METAR) to Gamal Abdel Nasser Airport

Closest report is Marsa Matruh Airport, 172.5 nm (319.5 km) E. Retrieved 2020/10/22 17:00 UTC (20 minutes ago):

HEMM 221700Z 36005KT 9999 SCT020 23/13 Q1018 NOSIG

Aviation forecast (TAF) for Gamal Abdel Nasser Airport

Forecast is more than 12 hours old.

Retrieved 2012/09/08 18:00 UTC (8 years ago):

TAF HLLQ 081700Z 0818/0918 34008G18KT 9999 SCT020= TAF HLGN 081700Z 0818/0918 36012KT 9999 SCT022